Time;durP1;ratioP1;P1;durP2;ratioP2;P2;SDS_P1;SDS_P2;PMS_P1;PMS_P2;Temp;Humidity;BMP_temperature;BMP_pressure;BME280_temperature;BME280_humidity;BME280_pressure;Samples;Min_cycle;Max_cycle;Signal;HPM_P1;HPM_P2
2023/05/16 00:00:57;;;;;;;0.60;0.60;;;18.60;63.90;;;;;;4939245;28;20283;-74
2023/05/16 00:03:25;;;;;;;1.17;0.90;;;18.60;63.80;;;;;;4945623;28;20230;-74
2023/05/16 00:05:54;;;;;;;0.33;0.33;;;18.50;63.80;;;;;;4947741;28;20202;-75
2023/05/16 00:08:23;;;;;;;0.60;0.60;;;18.50;63.80;;;;;;4947800;28;20289;-74
2023/05/16 00:10:53;;;;;;;0.20;0.20;;;18.50;63.70;;;;;;4950219;28;20250;-74
2023/05/16 00:13:23;;;;;;;0.83;0.80;;;18.50;63.60;;;;;;4948984;28;20681;-74
2023/05/16 00:15:52;;;;;;;0.63;0.63;;;18.50;63.80;;;;;;4950567;28;20198;-73
2023/05/16 00:18:21;;;;;;;0.40;0.40;;;18.50;64.10;;;;;;4947099;28;20713;-74
2023/05/16 00:20:50;;;;;;;1.33;0.50;;;18.50;64.30;;;;;;4950473;28;20232;-74
2023/05/16 00:23:19;;;;;;;0.40;0.40;;;18.50;64.40;;;;;;4944350;28;20740;-74
2023/05/16 00:25:47;;;;;;;3.80;1.47;;;18.50;64.70;;;;;;4950308;28;20229;-73
2023/05/16 00:28:17;;;;;;;0.40;0.40;;;18.50;64.50;;;;;;4950040;28;20609;-73
2023/05/16 00:30:45;;;;;;;0.30;0.30;;;18.50;64.70;;;;;;4949779;28;20325;-74
2023/05/16 00:33:13;;;;;;;0.87;0.87;;;18.50;65.00;;;;;;4942968;28;20638;-73
2023/05/16 00:35:41;;;;;;;0.50;0.50;;;18.50;64.90;;;;;;4950131;28;20205;-73
2023/05/16 00:38:10;;;;;;;0.77;0.77;;;18.40;65.30;;;;;;4952810;28;20218;-74
2023/05/16 00:40:39;;;;;;;0.77;0.73;;;18.40;65.30;;;;;;4949851;28;20244;-74
2023/05/16 00:43:07;;;;;;;0.80;0.67;;;18.40;65.40;;;;;;4949059;28;20262;-73
2023/05/16 00:45:37;;;;;;;0.50;0.50;;;18.40;65.70;;;;;;4950100;28;20202;-76
2023/05/16 00:48:05;;;;;;;0.40;0.40;;;18.40;66.50;;;;;;4944923;28;20261;-74
2023/05/16 00:50:35;;;;;;;0.53;0.50;;;18.30;66.30;;;;;;4952008;28;20203;-73
2023/05/16 00:53:03;;;;;;;2.80;2.00;;;18.40;66.20;;;;;;4945744;28;20230;-74
2023/05/16 00:55:32;;;;;;;0.60;0.60;;;18.30;66.30;;;;;;4948766;28;20253;-74
2023/05/16 00:58:00;;;;;;;0.40;0.40;;;18.30;66.40;;;;;;4943668;28;20199;-75
2023/05/16 01:00:28;;;;;;;0.97;0.90;;;18.30;66.50;;;;;;4945713;28;20293;-75
2023/05/16 01:02:59;;;;;;;0.63;0.60;;;18.30;67.00;;;;;;4943316;28;20200;-73
2023/05/16 01:05:29;;;;;;;0.57;0.50;;;18.30;67.40;;;;;;4954527;28;20694;-73
2023/05/16 01:07:57;;;;;;;0.93;0.63;;;18.20;67.10;;;;;;4941281;28;20210;-75
2023/05/16 01:10:32;;;;;;;1.07;0.30;;;18.20;67.20;;;;;;4948993;28;20269;-75
2023/05/16 01:13:09;;;;;;;0.90;0.70;;;18.20;66.90;;;;;;4947318;28;20281;-75
2023/05/16 01:15:46;;;;;;;0.60;0.50;;;18.20;67.20;;;;;;4953749;28;20237;-75
2023/05/16 01:18:24;;;;;;;1.53;0.83;;;18.20;67.70;;;;;;4945866;28;20194;-74
2023/05/16 01:21:02;;;;;;;0.70;0.70;;;18.20;67.50;;;;;;4952787;28;20190;-74
2023/05/16 01:23:49;;;;;;;0.80;0.80;;;18.10;68.20;;;;;;4945938;28;20209;-74
2023/05/16 01:26:21;;;;;;;0.57;0.57;;;18.10;67.80;;;;;;4944428;28;20241;-75
2023/05/16 01:28:51;;;;;;;0.77;0.60;;;18.10;67.60;;;;;;4945699;28;20618;-74
2023/05/16 01:31:19;;;;;;;0.67;0.67;;;18.10;67.50;;;;;;4948449;28;20238;-74
2023/05/16 01:33:48;;;;;;;0.73;0.60;;;18.10;68.00;;;;;;4952161;28;20206;-74
2023/05/16 01:36:24;;;;;;;1.13;0.80;;;18.10;67.80;;;;;;4951191;28;20231;-75
2023/05/16 01:39:02;;;;;;;1.13;1.03;;;18.10;67.70;;;;;;4951812;28;20206;-74
2023/05/16 01:41:41;;;;;;;0.50;0.50;;;18.10;68.00;;;;;;4951311;28;20197;-74
2023/05/16 01:44:16;;;;;;;0.53;0.30;;;18.10;68.00;;;;;;4947797;28;20281;-75
2023/05/16 01:46:47;;;;;;;1.53;0.90;;;18.20;68.40;;;;;;4949419;28;20194;-75
2023/05/16 01:49:20;;;;;;;0.90;0.80;;;18.10;68.40;;;;;;4942898;28;20893;-74
2023/05/16 01:51:53;;;;;;;0.47;0.47;;;18.10;68.50;;;;;;4944961;28;20199;-75
2023/05/16 01:54:25;;;;;;;1.00;0.70;;;18.10;68.40;;;;;;4951281;28;20249;-74
2023/05/16 01:56:56;;;;;;;0.90;0.90;;;18.10;68.50;;;;;;4945623;28;20203;-74
2023/05/16 01:59:25;;;;;;;0.40;0.40;;;18.10;68.40;;;;;;4942643;28;20242;-74
2023/05/16 02:01:54;;;;;;;0.93;0.50;;;18.10;68.40;;;;;;4947922;28;20198;-76
2023/05/16 02:04:23;;;;;;;1.13;0.67;;;18.10;68.60;;;;;;4954152;28;20203;-75
2023/05/16 02:06:52;;;;;;;0.70;0.70;;;18.10;68.80;;;;;;4951832;28;20199;-74
2023/05/16 02:09:20;;;;;;;0.80;0.80;;;18.10;68.70;;;;;;4949009;28;20198;-74
2023/05/16 02:11:48;;;;;;;0.30;0.30;;;18.10;69.30;;;;;;4945614;28;20211;-74
2023/05/16 02:14:18;;;;;;;0.50;0.50;;;18.10;70.00;;;;;;4949107;28;20203;-74
2023/05/16 02:16:46;;;;;;;0.60;0.60;;;18.10;69.80;;;;;;4943424;28;20203;-74
2023/05/16 02:19:15;;;;;;;1.30;0.70;;;18.10;69.90;;;;;;4951417;28;20301;-75
2023/05/16 02:21:43;;;;;;;0.50;0.50;;;18.10;69.90;;;;;;4945155;28;20209;-73
2023/05/16 02:24:11;;;;;;;1.03;0.77;;;18.10;69.80;;;;;;4946014;28;20242;-75
2023/05/16 02:26:40;;;;;;;1.03;0.70;;;18.10;70.20;;;;;;4944861;28;20252;-75
2023/05/16 02:29:09;;;;;;;0.67;0.50;;;18.10;70.50;;;;;;4944457;28;20201;-73
2023/05/16 02:31:39;;;;;;;1.70;0.60;;;18.10;70.80;;;;;;4948057;28;20298;-74
2023/05/16 02:34:08;;;;;;;0.93;0.67;;;18.00;72.50;;;;;;4945038;28;20292;-74
2023/05/16 02:36:36;;;;;;;1.63;1.10;;;17.90;72.40;;;;;;4949384;28;20199;-74
2023/05/16 02:39:04;;;;;;;1.13;1.03;;;17.90;72.50;;;;;;4944900;28;20199;-75
2023/05/16 02:41:33;;;;;;;0.90;0.70;;;17.90;72.70;;;;;;4949012;28;20202;-74
2023/05/16 02:44:01;;;;;;;0.57;0.50;;;17.90;72.40;;;;;;4946625;28;20198;-74
2023/05/16 02:46:30;;;;;;;0.33;0.33;;;17.80;72.70;;;;;;4952129;28;20206;-75
2023/05/16 02:49:00;;;;;;;1.17;0.50;;;17.80;72.70;;;;;;4948329;28;20233;-73
2023/05/16 02:51:29;;;;;;;1.40;0.70;;;17.80;73.30;;;;;;4948795;28;20203;-74
2023/05/16 02:53:58;;;;;;;1.90;1.50;;;17.80;73.90;;;;;;4945901;28;20245;-75
2023/05/16 02:56:27;;;;;;;2.23;0.93;;;17.80;73.80;;;;;;4938527;28;20198;-73
2023/05/16 02:58:55;;;;;;;0.53;0.53;;;17.80;74.40;;;;;;4950209;28;20204;-74
2023/05/16 03:01:24;;;;;;;0.60;0.60;;;17.70;74.50;;;;;;4947188;28;20297;-74
2023/05/16 03:03:52;;;;;;;1.40;0.60;;;17.70;75.10;;;;;;4943525;28;20225;-75
2023/05/16 03:06:22;;;;;;;0.97;0.57;;;17.70;74.80;;;;;;4948090;28;20206;-75
2023/05/16 03:08:50;;;;;;;0.70;0.70;;;17.70;75.50;;;;;;4944754;28;20745;-74
2023/05/16 03:11:20;;;;;;;0.87;0.60;;;17.60;75.90;;;;;;4949248;28;20198;-76
2023/05/16 03:13:48;;;;;;;0.67;0.67;;;17.60;76.10;;;;;;4943232;28;20206;-73
2023/05/16 03:16:17;;;;;;;0.97;0.93;;;17.60;76.40;;;;;;4944859;28;20199;-75
2023/05/16 03:18:45;;;;;;;0.63;0.50;;;17.60;76.30;;;;;;4951143;28;20206;-74
2023/05/16 03:21:13;;;;;;;1.70;1.13;;;17.60;76.90;;;;;;4948563;28;20228;-76
2023/05/16 03:23:43;;;;;;;1.23;0.80;;;17.60;77.00;;;;;;4941132;28;20203;-77
2023/05/16 03:26:11;;;;;;;3.47;1.07;;;17.60;76.70;;;;;;4947555;28;20714;-75
2023/05/16 03:28:40;;;;;;;2.73;1.67;;;17.60;76.90;;;;;;4943952;28;20205;-76
2023/05/16 03:31:08;;;;;;;1.63;1.00;;;17.60;76.60;;;;;;4948476;28;20696;-76
2023/05/16 03:33:36;;;;;;;0.77;0.70;;;17.60;77.60;;;;;;4947678;28;20213;-77
2023/05/16 03:36:05;;;;;;;0.77;0.63;;;17.60;77.00;;;;;;4953487;28;20253;-75
2023/05/16 03:38:33;;;;;;;1.03;0.80;;;17.60;76.90;;;;;;4949143;28;20281;-75
2023/05/16 03:41:03;;;;;;;2.50;1.40;;;17.60;76.60;;;;;;4943988;28;20305;-76
2023/05/16 03:43:31;;;;;;;0.60;0.50;;;17.70;77.30;;;;;;4946638;28;20233;-75
2023/05/16 03:46:01;;;;;;;4.50;1.60;;;17.70;77.60;;;;;;4945634;28;20633;-73
2023/05/16 03:48:31;;;;;;;2.13;0.63;;;17.70;77.50;;;;;;4950006;28;20558;-75
2023/05/16 03:51:00;;;;;;;0.73;0.57;;;17.70;77.70;;;;;;4947674;28;20718;-75
2023/05/16 03:53:28;;;;;;;1.10;1.00;;;17.70;78.30;;;;;;4945915;28;20615;-74
2023/05/16 03:55:56;;;;;;;1.27;1.10;;;17.70;78.50;;;;;;4949230;28;20198;-74
2023/05/16 03:58:26;;;;;;;1.73;0.83;;;17.60;79.70;;;;;;4944758;28;20198;-73
2023/05/16 04:00:54;;;;;;;1.47;1.30;;;17.60;80.00;;;;;;4945460;28;20261;-76
2023/05/16 04:03:27;;;;;;;1.60;1.07;;;17.60;79.70;;;;;;4928006;28;20301;-73
2023/05/16 04:05:56;;;;;;;1.27;1.17;;;17.60;79.80;;;;;;4945017;28;20190;-73
2023/05/16 04:08:24;;;;;;;1.83;1.20;;;17.50;81.10;;;;;;4949189;28;20202;-75
2023/05/16 04:10:52;;;;;;;1.57;1.40;;;17.50;81.70;;;;;;4954575;28;20643;-76
2023/05/16 04:13:21;;;;;;;0.60;0.60;;;17.50;81.40;;;;;;4953480;28;20206;-75
2023/05/16 04:15:51;;;;;;;2.00;1.13;;;17.50;81.50;;;;;;4948632;28;20202;-73
2023/05/16 04:18:19;;;;;;;1.37;1.03;;;17.40;81.70;;;;;;4950533;28;20289;-76
2023/05/16 04:20:47;;;;;;;2.10;1.27;;;17.50;82.10;;;;;;4948195;28;20304;-76
2023/05/16 04:23:16;;;;;;;1.47;1.13;;;17.50;81.90;;;;;;4944808;28;20675;-74
2023/05/16 04:25:44;;;;;;;1.93;1.17;;;17.50;82.10;;;;;;4951367;28;20721;-75
2023/05/16 04:28:13;;;;;;;4.03;1.03;;;17.50;82.00;;;;;;4949588;28;20735;-74
2023/05/16 04:30:41;;;;;;;1.07;0.93;;;17.50;82.90;;;;;;4953132;28;20317;-75
2023/05/16 04:33:11;;;;;;;1.37;1.00;;;17.50;82.20;;;;;;4950127;28;20690;-75
2023/05/16 04:35:39;;;;;;;2.50;1.20;;;17.60;82.50;;;;;;4950602;28;20734;-75
2023/05/16 04:38:08;;;;;;;1.17;0.83;;;17.60;82.60;;;;;;4953094;28;20611;-76
2023/05/16 04:40:36;;;;;;;3.10;1.10;;;17.70;82.20;;;;;;4950851;28;20226;-76
2023/05/16 04:43:05;;;;;;;1.10;0.90;;;17.70;81.90;;;;;;4943972;28;20209;-76
2023/05/16 04:45:33;;;;;;;0.47;0.47;;;17.70;82.50;;;;;;4952532;28;20245;-74
2023/05/16 04:48:04;;;;;;;1.33;1.23;;;17.80;82.30;;;;;;4948050;28;20228;-75
2023/05/16 04:50:34;;;;;;;0.97;0.97;;;17.80;82.00;;;;;;4950608;28;20195;-76
2023/05/16 04:53:03;;;;;;;1.53;1.00;;;17.90;81.90;;;;;;4951214;28;20857;-74
2023/05/16 04:55:31;;;;;;;1.50;0.70;;;17.90;81.80;;;;;;4950691;28;20281;-74
2023/05/16 04:57:59;;;;;;;1.33;1.07;;;18.00;82.50;;;;;;4952498;28;20218;-74
2023/05/16 05:00:28;;;;;;;1.50;1.13;;;18.00;82.80;;;;;;4949116;28;20669;-77
2023/05/16 05:02:56;;;;;;;1.03;0.73;;;18.00;82.50;;;;;;4952056;28;20209;-74
2023/05/16 05:05:25;;;;;;;0.83;0.50;;;18.10;82.30;;;;;;4957378;28;20701;-75
2023/05/16 05:07:55;;;;;;;1.17;0.73;;;18.20;82.20;;;;;;4953804;29;20683;-75
2023/05/16 05:10:23;;;;;;;1.70;1.07;;;18.20;82.20;;;;;;4952950;28;20289;-74
2023/05/16 05:12:51;;;;;;;0.83;0.83;;;18.20;82.10;;;;;;4953608;28;20202;-80
2023/05/16 05:15:20;;;;;;;0.97;0.77;;;18.30;82.00;;;;;;4956129;28;20230;-74
2023/05/16 05:17:48;;;;;;;1.17;0.93;;;18.40;81.80;;;;;;4953714;28;20286;-75
2023/05/16 05:20:17;;;;;;;0.83;0.83;;;18.40;81.80;;;;;;4947611;28;20198;-75
2023/05/16 05:22:45;;;;;;;0.80;0.80;;;18.40;81.60;;;;;;4952355;28;20245;-75
2023/05/16 05:25:15;;;;;;;1.00;0.93;;;18.50;81.40;;;;;;4949084;28;20214;-74
2023/05/16 05:27:43;;;;;;;0.70;0.60;;;18.50;81.60;;;;;;4943681;28;20296;-74
2023/05/16 05:30:12;;;;;;;2.73;0.70;;;18.60;81.60;;;;;;4948529;28;20309;-75
2023/05/16 05:32:40;;;;;;;2.90;1.27;;;18.60;81.30;;;;;;4947753;28;20432;-73
2023/05/16 05:35:09;;;;;;;1.10;0.80;;;18.70;81.30;;;;;;4951358;28;22579;-74
2023/05/16 05:37:37;;;;;;;1.93;0.93;;;18.70;81.10;;;;;;4950795;28;20199;-75
2023/05/16 05:40:08;;;;;;;1.63;1.47;;;18.80;81.00;;;;;;4951297;28;20587;-75
2023/05/16 05:42:38;;;;;;;1.03;0.77;;;18.80;81.10;;;;;;4947420;28;20215;-76
2023/05/16 05:45:07;;;;;;;0.63;0.63;;;18.90;80.80;;;;;;4946357;28;20199;-75
2023/05/16 05:47:36;;;;;;;0.60;0.60;;;19.00;80.70;;;;;;4949903;28;20241;-76
2023/05/16 05:50:05;;;;;;;1.37;0.97;;;19.00;80.20;;;;;;4952059;28;20199;-74
2023/05/16 05:52:33;;;;;;;3.77;1.33;;;19.10;80.10;;;;;;4946364;28;20260;-74
2023/05/16 05:55:02;;;;;;;1.47;1.30;;;19.10;79.80;;;;;;4949431;28;20198;-75
2023/05/16 05:57:30;;;;;;;0.93;0.77;;;19.20;79.70;;;;;;4947592;28;20207;-75
2023/05/16 06:00:00;;;;;;;1.17;0.97;;;19.20;79.40;;;;;;4950563;28;20284;-74
2023/05/16 06:02:28;;;;;;;1.63;1.10;;;19.20;79.20;;;;;;4948792;28;20250;-73
2023/05/16 06:04:57;;;;;;;1.97;1.27;;;19.20;78.90;;;;;;4953996;28;20586;-74
2023/05/16 06:07:25;;;;;;;1.10;0.80;;;19.30;78.80;;;;;;4952082;28;20281;-74
2023/05/16 06:09:53;;;;;;;1.33;0.90;;;19.30;78.60;;;;;;4946306;28;20263;-75
2023/05/16 06:12:22;;;;;;;0.83;0.60;;;19.40;78.50;;;;;;4942238;28;20660;-74
2023/05/16 06:14:50;;;;;;;0.67;0.67;;;19.50;78.30;;;;;;4941502;28;20698;-75
2023/05/16 06:17:20;;;;;;;1.40;1.00;;;19.50;79.00;;;;;;4943464;28;20294;-75
2023/05/16 06:19:48;;;;;;;1.47;0.80;;;19.50;78.00;;;;;;4949708;28;20331;-73
2023/05/16 06:22:16;;;;;;;1.33;0.80;;;19.60;77.90;;;;;;4948429;28;20218;-75
2023/05/16 06:24:45;;;;;;;0.50;0.50;;;19.70;77.50;;;;;;4944106;28;20202;-76
2023/05/16 06:27:13;;;;;;;1.07;0.97;;;19.60;77.30;;;;;;4944981;28;20734;-74
2023/05/16 06:29:42;;;;;;;1.27;1.10;;;19.70;77.20;;;;;;4951700;28;20257;-73
2023/05/16 06:32:13;;;;;;;0.93;0.83;;;19.70;77.30;;;;;;4913731;29;20273;-74
2023/05/16 06:34:45;;;;;;;0.47;0.47;;;19.80;77.40;;;;;;4945873;28;20233;-74
2023/05/16 06:37:14;;;;;;;0.73;0.73;;;19.80;77.30;;;;;;4947861;28;20194;-75
2023/05/16 06:39:42;;;;;;;1.45;0.70;;;19.90;77.40;;;;;;4945018;28;20442;-76
2023/05/16 06:42:11;;;;;;;0.60;0.60;;;20.00;77.40;;;;;;4945956;28;20226;-76
2023/05/16 06:44:40;;;;;;;1.30;0.87;;;20.00;78.00;;;;;;4951200;28;20206;-74
2023/05/16 06:47:08;;;;;;;0.93;0.83;;;20.10;77.40;;;;;;4945683;28;20202;-75
2023/05/16 06:49:36;;;;;;;1.07;0.63;;;20.10;77.20;;;;;;4944422;28;20665;-77
2023/05/16 06:52:07;;;;;;;1.67;0.80;;;20.20;77.10;;;;;;4947558;28;20190;-75
2023/05/16 06:54:35;;;;;;;1.35;1.00;;;20.20;76.80;;;;;;4946365;28;20580;-76
2023/05/16 06:59:48;;;;;;;1.20;1.10;;;20.30;76.50;;;;;;4944539;28;20198;-76
2023/05/16 07:02:16;;;;;;;1.17;0.88;;;20.50;76.20;;;;;;4949476;28;20599;-76
2023/05/16 07:04:44;;;;;;;2.33;1.45;;;20.60;76.30;;;;;;4950820;28;20261;-74
2023/05/16 07:07:14;;;;;;;1.55;0.75;;;20.60;76.00;;;;;;4944337;28;20207;-75
2023/05/16 07:09:43;;;;;;;1.95;0.80;;;20.80;75.90;;;;;;4945282;28;20199;-76
2023/05/16 07:12:11;;;;;;;0.38;0.35;;;20.90;75.70;;;;;;4946915;28;20194;-78
2023/05/16 07:14:40;;;;;;;1.00;0.90;;;20.90;75.40;;;;;;4943648;28;20201;-75
2023/05/16 07:17:08;;;;;;;1.15;0.70;;;21.10;75.10;;;;;;4945375;28;20641;-77
2023/05/16 07:19:37;;;;;;;1.33;1.15;;;21.20;74.60;;;;;;4951558;28;20202;-76
2023/05/16 07:22:05;;;;;;;1.95;0.77;;;21.30;74.70;;;;;;4948871;28;20226;-74
2023/05/16 07:24:36;;;;;;;0.85;0.60;;;21.40;74.60;;;;;;4948762;28;20207;-74
2023/05/16 07:27:05;;;;;;;0.95;0.77;;;21.50;74.20;;;;;;4948831;28;20205;-76
2023/05/16 07:29:34;;;;;;;1.05;0.70;;;21.60;73.60;;;;;;4947876;28;20215;-75
2023/05/16 07:32:02;;;;;;;12.70;0.90;;;21.70;73.50;;;;;;4951554;28;20320;-74
2023/05/16 07:34:31;;;;;;;0.63;0.63;;;21.70;73.00;;;;;;4944766;28;20281;-75
2023/05/16 07:36:59;;;;;;;0.40;0.40;;;21.80;72.90;;;;;;4948838;28;20279;-76
2023/05/16 07:39:27;;;;;;;1.45;1.00;;;21.90;72.80;;;;;;4946384;28;20202;-76
2023/05/16 07:41:57;;;;;;;1.48;0.93;;;21.90;73.50;;;;;;4951893;28;20206;-75
2023/05/16 07:44:25;;;;;;;1.92;1.42;;;22.00;72.30;;;;;;4946801;28;20217;-74
2023/05/16 07:46:54;;;;;;;2.25;1.23;;;22.00;72.10;;;;;;4946501;28;20214;-75
2023/05/16 07:49:22;;;;;;;1.45;1.00;;;22.10;71.80;;;;;;4945781;28;20211;-75
2023/05/16 07:51:50;;;;;;;1.67;0.85;;;22.20;71.50;;;;;;4947797;28;20261;-75
2023/05/16 07:54:29;;;;;;;0.77;0.75;;;22.30;71.50;;;;;;4945126;28;20206;-75
2023/05/16 07:56:59;;;;;;;1.73;1.23;;;22.30;71.20;;;;;;4949320;28;20207;-74
2023/05/16 07:59:28;;;;;;;0.98;0.82;;;22.40;70.50;;;;;;4949640;28;20202;-75
2023/05/16 08:01:57;;;;;;;1.55;1.10;;;22.50;70.70;;;;;;4950013;28;20257;-75
2023/05/16 08:04:25;;;;;;;1.58;0.98;;;22.50;70.70;;;;;;4947315;28;20760;-78
2023/05/16 08:06:53;;;;;;;1.15;0.95;;;22.60;70.70;;;;;;4947511;28;20206;-75
2023/05/16 08:09:22;;;;;;;1.35;0.95;;;22.70;70.40;;;;;;4948672;28;20655;-74
2023/05/16 08:11:50;;;;;;;3.50;0.75;;;22.70;70.30;;;;;;4947774;28;20198;-75
2023/05/16 08:14:20;;;;;;;0.40;0.40;;;22.80;70.20;;;;;;4943764;28;20643;-77
2023/05/16 08:16:48;;;;;;;3.55;0.90;;;22.90;70.00;;;;;;4950729;28;20666;-75
2023/05/16 08:19:17;;;;;;;1.20;1.08;;;22.90;69.80;;;;;;4940664;28;20215;-76
2023/05/16 08:21:46;;;;;;;1.50;1.10;;;23.00;69.80;;;;;;4946739;28;20663;-75
2023/05/16 08:24:14;;;;;;;1.23;0.98;;;23.00;68.60;;;;;;4951208;28;20237;-76
2023/05/16 08:26:45;;;;;;;0.50;0.50;;;23.10;68.90;;;;;;4947435;28;20286;-74
2023/05/16 08:29:13;;;;;;;0.60;0.52;;;23.10;68.20;;;;;;4941427;28;20218;-76
2023/05/16 08:31:43;;;;;;;2.40;1.27;;;23.10;68.50;;;;;;4948895;28;20242;-76
2023/05/16 08:34:11;;;;;;;1.25;0.85;;;23.20;68.80;;;;;;4949763;28;20269;-76
2023/05/16 08:36:40;;;;;;;1.00;0.65;;;23.30;68.80;;;;;;4947429;28;20203;-74
2023/05/16 08:39:10;;;;;;;3.47;1.02;;;23.30;68.30;;;;;;4945165;28;20203;-76
2023/05/16 08:41:39;;;;;;;1.30;1.20;;;23.40;68.10;;;;;;4949564;28;20206;-75
2023/05/16 08:44:09;;;;;;;1.42;0.57;;;23.40;67.90;;;;;;4949602;28;20218;-74
2023/05/16 08:46:39;;;;;;;0.85;0.75;;;23.40;68.00;;;;;;4949588;28;20732;-76
2023/05/16 08:49:11;;;;;;;0.95;0.80;;;23.50;68.10;;;;;;4946008;28;20537;-75
2023/05/16 08:51:41;;;;;;;0.35;0.35;;;23.60;68.10;;;;;;4943617;28;20201;-76
2023/05/16 08:54:13;;;;;;;0.68;0.60;;;23.70;68.00;;;;;;4947814;28;20193;-75
2023/05/16 08:56:42;;;;;;;2.78;1.23;;;23.70;67.70;;;;;;4947527;28;20199;-73
2023/05/16 08:59:11;;;;;;;0.60;0.43;;;23.80;67.10;;;;;;4950628;28;20226;-74
2023/05/16 09:01:39;;;;;;;0.98;0.77;;;23.90;67.20;;;;;;4949207;28;20206;-74
2023/05/16 09:04:10;;;;;;;0.70;0.50;;;23.80;66.30;;;;;;4947220;28;20229;-74
2023/05/16 09:06:38;;;;;;;1.70;0.90;;;23.90;66.60;;;;;;4948668;28;20199;-74
2023/05/16 09:09:09;;;;;;;1.10;0.77;;;23.90;66.80;;;;;;4947121;28;20208;-75
2023/05/16 09:11:38;;;;;;;0.55;0.50;;;24.00;66.60;;;;;;4952349;28;20202;-75
2023/05/16 09:14:06;;;;;;;1.05;0.70;;;24.10;66.40;;;;;;4945330;28;20712;-75
2023/05/16 09:16:34;;;;;;;1.42;0.93;;;24.10;65.90;;;;;;4947435;28;20202;-77
2023/05/16 09:19:03;;;;;;;1.70;1.08;;;24.10;65.70;;;;;;4948931;28;20206;-75
2023/05/16 09:21:34;;;;;;;0.63;0.50;;;24.20;65.80;;;;;;4949634;28;20229;-75
2023/05/16 09:24:04;;;;;;;0.82;0.82;;;24.30;65.60;;;;;;4950150;28;20301;-75
2023/05/16 09:26:33;;;;;;;2.83;0.68;;;24.30;65.60;;;;;;4949840;28;20206;-75
2023/05/16 09:29:02;;;;;;;2.28;1.02;;;24.30;65.40;;;;;;4946598;28;20213;-75
2023/05/16 09:31:36;;;;;;;0.63;0.63;;;24.40;65.20;;;;;;4940905;28;20238;-74
2023/05/16 09:34:10;;;;;;;2.05;0.57;;;24.50;65.40;;;;;;4948347;28;20204;-75
2023/05/16 09:36:40;;;;;;;0.40;0.40;;;24.50;65.20;;;;;;4946570;28;20202;-74
2023/05/16 09:39:15;;;;;;;0.40;0.40;;;24.50;64.90;;;;;;4946843;28;20569;-75
2023/05/16 09:41:43;;;;;;;0.63;0.63;;;24.60;65.10;;;;;;4945885;28;20286;-75
2023/05/16 09:44:12;;;;;;;1.38;0.40;;;24.80;65.40;;;;;;4943215;28;20222;-75
2023/05/16 09:46:40;;;;;;;0.68;0.68;;;24.80;65.20;;;;;;4948579;28;20666;-73
2023/05/16 09:49:12;;;;;;;0.93;0.50;;;25.00;64.60;;;;;;4943403;28;20437;-77
2023/05/16 09:51:43;;;;;;;1.73;1.00;;;25.10;63.80;;;;;;4950135;28;20201;-75
2023/05/16 09:54:11;;;;;;;0.60;0.60;;;25.10;63.30;;;;;;4945901;28;20193;-75
2023/05/16 09:56:49;;;;;;;1.67;0.80;;;25.10;62.50;;;;;;4951174;28;20206;-74
2023/05/16 09:59:18;;;;;;;1.35;0.73;;;25.20;62.70;;;;;;4945607;28;20198;-74
2023/05/16 10:01:49;;;;;;;0.80;0.52;;;25.20;62.80;;;;;;4950706;28;20698;-75
2023/05/16 10:04:17;;;;;;;1.85;0.80;;;25.40;62.70;;;;;;4948442;28;20285;-74
2023/05/16 10:06:48;;;;;;;0.40;0.40;;;25.40;62.20;;;;;;4949124;28;20213;-74
2023/05/16 10:09:17;;;;;;;0.68;0.50;;;25.60;62.50;;;;;;4947185;28;20202;-74
2023/05/16 10:11:46;;;;;;;0.95;0.50;;;25.60;61.90;;;;;;4946884;28;20221;-74
2023/05/16 10:14:18;;;;;;;0.63;0.60;;;25.70;62.40;;;;;;4944378;28;20660;-73
2023/05/16 10:16:48;;;;;;;1.20;0.77;;;25.80;62.50;;;;;;4948007;28;20225;-76
2023/05/16 10:19:20;;;;;;;0.70;0.70;;;25.90;62.10;;;;;;4948427;28;20198;-75
2023/05/16 10:21:54;;;;;;;12.35;0.73;;;25.90;61.90;;;;;;4949679;28;20204;-75
2023/05/16 10:24:29;;;;;;;1.13;0.70;;;25.90;62.20;;;;;;4946789;28;20229;-74
2023/05/16 10:26:58;;;;;;;0.47;0.47;;;26.00;61.60;;;;;;4947974;28;20198;-74
2023/05/16 10:29:28;;;;;;;0.43;0.43;;;25.90;61.20;;;;;;4948677;28;20216;-74
2023/05/16 10:32:01;;;;;;;0.50;0.50;;;26.00;61.30;;;;;;4944040;28;20236;-75
2023/05/16 10:34:32;;;;;;;2.60;0.70;;;26.00;61.00;;;;;;4944077;28;20673;-76
2023/05/16 10:37:02;;;;;;;0.43;0.32;;;26.00;61.20;;;;;;4950065;28;20207;-77
2023/05/16 10:39:32;;;;;;;0.93;0.80;;;26.10;60.80;;;;;;4950460;28;20599;-74
2023/05/16 10:42:00;;;;;;;0.57;0.57;;;26.10;60.80;;;;;;4946160;28;20575;-75
2023/05/16 10:44:32;;;;;;;1.27;0.77;;;26.20;61.10;;;;;;4951716;28;20322;-73
2023/05/16 10:47:03;;;;;;;0.50;0.50;;;26.30;60.20;;;;;;4943667;28;20452;-73
2023/05/16 10:49:47;;;;;;;1.30;0.65;;;26.40;60.60;;;;;;4946663;28;20693;-76
2023/05/16 10:52:18;;;;;;;1.30;1.10;;;26.40;60.50;;;;;;4944346;28;20201;-74
2023/05/16 10:54:51;;;;;;;0.68;0.55;;;26.50;60.60;;;;;;4943383;28;20210;-72
2023/05/16 10:57:23;;;;;;;0.45;0.32;;;26.50;60.30;;;;;;4945960;28;20564;-75
2023/05/16 10:59:53;;;;;;;0.55;0.50;;;26.50;60.30;;;;;;4944620;28;20584;-75
2023/05/16 11:02:31;;;;;;;1.40;1.10;;;26.60;60.50;;;;;;4941448;28;20198;-75
2023/05/16 11:05:01;;;;;;;0.80;0.68;;;26.60;60.40;;;;;;4946136;28;20217;-76
2023/05/16 11:07:34;;;;;;;1.63;0.90;;;26.60;60.40;;;;;;4944617;28;20220;-74
2023/05/16 11:10:05;;;;;;;9.52;0.80;;;26.50;59.90;;;;;;4944240;28;20199;-75
2023/05/16 11:12:44;;;;;;;0.30;0.30;;;26.60;59.30;;;;;;4945333;28;20202;-75
2023/05/16 11:15:23;;;;;;;1.10;0.52;;;26.80;59.70;;;;;;4945109;28;20201;-74
2023/05/16 11:18:03;;;;;;;0.77;0.75;;;26.80;59.40;;;;;;4946339;28;20195;-74
2023/05/16 11:20:34;;;;;;;1.38;0.73;;;26.90;59.60;;;;;;4947338;28;20225;-74
2023/05/16 11:23:24;;;;;;;1.00;0.68;;;27.00;59.20;;;;;;4950903;28;20202;-75
2023/05/16 11:25:55;;;;;;;0.93;0.70;;;27.10;59.20;;;;;;4945430;28;20222;-74
2023/05/16 11:28:25;;;;;;;0.73;0.65;;;27.10;58.60;;;;;;4942419;28;20210;-74
2023/05/16 11:30:56;;;;;;;4.35;1.38;;;27.10;58.10;;;;;;4950705;28;20260;-75
2023/05/16 11:33:26;;;;;;;1.48;0.73;;;27.20;58.40;;;;;;4947192;29;20199;-75
2023/05/16 11:36:02;;;;;;;0.57;0.57;;;27.20;57.40;;;;;;4950583;28;20195;-75
2023/05/16 11:38:44;;;;;;;1.55;0.77;;;27.30;57.90;;;;;;4949991;28;20218;-75
2023/05/16 11:41:15;;;;;;;2.60;0.70;;;27.40;58.10;;;;;;4948810;28;20651;-75
2023/05/16 11:43:45;;;;;;;2.50;0.77;;;27.40;58.00;;;;;;4948837;28;20285;-75
2023/05/16 11:46:13;;;;;;;7.43;0.50;;;27.50;58.50;;;;;;4950831;28;20222;-75
2023/05/16 11:48:44;;;;;;;0.85;0.63;;;27.50;57.90;;;;;;4947587;28;20206;-74
2023/05/16 11:51:17;;;;;;;0.47;0.47;;;27.70;57.90;;;;;;4942890;28;20199;-74
2023/05/16 11:53:48;;;;;;;0.95;0.60;;;27.70;57.60;;;;;;4946676;28;20194;-76
2023/05/16 11:56:17;;;;;;;1.13;0.57;;;27.70;57.60;;;;;;4942647;28;20291;-74
2023/05/16 11:58:46;;;;;;;1.15;0.55;;;27.80;57.20;;;;;;4941152;28;20208;-76
2023/05/16 12:01:14;;;;;;;4.45;0.95;;;27.90;57.50;;;;;;4945034;28;20201;-73
2023/05/16 12:03:55;;;;;;;0.80;0.80;;;27.90;56.90;;;;;;4948346;28;20198;-74
2023/05/16 12:06:23;;;;;;;0.55;0.55;;;28.00;57.10;;;;;;4947828;28;20221;-75
2023/05/16 12:08:53;;;;;;;0.85;0.80;;;28.00;57.30;;;;;;4948934;28;20225;-74
2023/05/16 12:11:23;;;;;;;0.30;0.30;;;28.00;57.30;;;;;;4942433;28;20210;-74
2023/05/16 12:13:52;;;;;;;0.45;0.38;;;28.10;57.10;;;;;;4951815;28;20195;-74
2023/05/16 12:16:21;;;;;;;0.38;0.32;;;28.10;57.00;;;;;;4951517;28;20209;-74
2023/05/16 12:18:49;;;;;;;2.58;0.35;;;28.20;57.00;;;;;;4951115;28;20209;-74
2023/05/16 12:21:18;;;;;;;1.90;0.50;;;28.10;56.00;;;;;;4951186;28;20244;-74
2023/05/16 12:23:46;;;;;;;0.30;0.30;;;28.20;56.50;;;;;;4949954;28;20203;-76
2023/05/16 12:26:23;;;;;;;1.10;0.93;;;28.20;56.80;;;;;;4949114;28;20223;-76
2023/05/16 12:28:56;;;;;;;0.30;0.30;;;28.20;56.10;;;;;;4947407;28;20195;-73
2023/05/16 12:31:24;;;;;;;0.68;0.38;;;28.30;56.00;;;;;;4953924;28;20325;-76
2023/05/16 12:33:59;;;;;;;1.73;1.08;;;28.30;56.00;;;;;;4955196;28;20677;-73
2023/05/16 12:36:32;;;;;;;0.38;0.32;;;28.20;55.60;;;;;;4954144;28;20194;-75
2023/05/16 12:39:02;;;;;;;0.73;0.63;;;28.30;56.00;;;;;;4954537;28;20194;-77
2023/05/16 12:41:41;;;;;;;0.45;0.45;;;28.30;55.90;;;;;;4950143;28;20199;-76
2023/05/16 12:44:15;;;;;;;0.73;0.73;;;28.30;55.20;;;;;;4948701;28;20194;-74
2023/05/16 12:46:45;;;;;;;0.85;0.75;;;28.40;55.50;;;;;;4955411;28;20202;-76
2023/05/16 12:49:13;;;;;;;0.45;0.40;;;28.50;55.50;;;;;;4953750;28;20201;-75
2023/05/16 12:51:49;;;;;;;5.85;0.95;;;28.50;55.80;;;;;;4952244;28;20671;-75
2023/05/16 12:54:18;;;;;;;0.55;0.55;;;28.50;56.00;;;;;;4952693;28;20592;-73
2023/05/16 12:56:47;;;;;;;0.43;0.40;;;28.50;55.40;;;;;;4951364;28;20202;-75
2023/05/16 12:59:16;;;;;;;3.40;1.75;;;28.60;55.50;;;;;;4948934;28;20203;-76
2023/05/16 13:01:45;;;;;;;6.22;0.65;;;28.70;55.20;;;;;;4949735;28;20195;-75
2023/05/16 13:04:17;;;;;;;4.78;0.85;;;28.70;55.20;;;;;;4949037;28;20293;-75